AirNav   TITAN Aviation Fuels
 
 526 users online  

6N7 New York Skyports Inc Seaplane Base
New York, New York, USA

GOING TO NEW YORK?


FAA INFORMATION EFFECTIVE 16 JUNE 2022

Location

FAA Identifier: 6N7
Lat/Long: 40-44-02.3670N 073-58-22.4990W
40-44.039450N 073-58.374983W
40.7339908,-73.9729164
(estimated)
Elevation: 0 ft. / 0 m (estimated)
Variation: 13W (1985)
Time zone: UTC -4 (UTC -5 during Standard Time)
Zip code: 10199

Seaplane Base Operations

Seaplane Base use: Open to the public
Activation date: 12/1946
Control tower: no
ARTCC: NEW YORK CENTER
FSS: NEW YORK FLIGHT SERVICE STATION
NOTAMs facility: ISP (NOTAM-D service available)
Attendance: 0800-DUSK
Wind indicator: yes
Segmented circle: no
Landing fee: yes

Seaplane Base Communications

CTAF: 122.9
WX AWOS-3PT at JRB (2.6 nm SW): 128.175 (212-425-1534)
WX ASOS at LGA (5 nm NE): PHONE 718-672-6317
WX ASOS at TEB (8 nm NW): PHONE 201-393-0855
WX ASOS at EWR (9 nm W): PHONE 973-621-2892
WX ASOS at JFK (10 nm SE): 128.725 (718-656-0956)
WX AWOS-3 at LDJ (14 nm SW): 124.025 (908-862-7383)
WX ASOS at CDW (16 nm NW): 135.5 (973-575-4417)

Nearby radio navigation aids

VOR radial/distance  VOR name  Freq  Var
LGAr250/5.6LA GUARDIA VOR/DME113.1012W
TEBr160/8.0TETERBORO VOR/DME108.4011W
CRIr345/8.1CANARSIE VOR/DME112.3011W
JFKr315/11.0KENNEDY VOR/DME115.9012W
COLr030/26.7COLTS NECK VOR/DME115.4011W
DPKr275/30.6DEER PARK VOR/DME117.7012W
SAXr139/32.5SPARTA VORTAC115.7011W
SBJr085/36.1SOLBERG VOR/DME112.9010W
CMKr220/37.3CARMEL VOR/DME116.6012W
BWZr107/38.8BROADWAY VOR/DME114.2011W
RBVr047/39.8ROBBINSVILLE VORTAC113.8010W

 
NDB name  Hdg/Dist  Freq  Var  ID
TORBY132/8.421412WTE - .
CHATHAM104/20.825413WCAT -.-. .- -

Seaplane Base Services

Runway Information

Runway N/S

Dimensions: 10000 x 1000 ft. / 3048 x 305 m
Surface: water
RUNWAY N  RUNWAY S
Traffic pattern: leftleft

Seaplane Base Ownership and Management from official FAA records

Ownership: Publicly-owned
Owner: NEW YORK CITY - ECONOMIC DEV CORP
2430 FDR DRIVE - EAST SERVICE RD
NEW YORK, NY 10010
Phone (212) 481-4806
Manager: TORRELL MILLER
2430 FDR DRIVE - EAST SERVICE RD
NEW YORK, NY 10010
Phone (201) 214-0969

Seaplane Base Operational Statistics

Aircraft operations: avg 34/week *
100% air taxi
* for 12-month period ending 11 April 2019

Additional Remarks

E RIVER-VELOCITY 2.6MPH IN SSW DRCTN. HVY BOAT TFC IN RIVER.
PILOTS REQUIRED TO TAXI 1000' OFF-SHORE ON MANHATAN SIDE BEFORE BEGINNING TAKEOFF.
PILOTS REQUIRED NOT TO FLY OVER THE 59TH STREET BRIDGE.
3 BLADED PROPS REQ'D ON ALL SEAPLANES.
PILOTS MUST COMPLETE A PROVING FLIGHT W/AN AUTHORIZED MEMBER OF THE N.E. SEAPLANES PILOT'S ASSOC. PRIOR TO SPB USE
NO TIE-DOWNS AND NO OVERNIGHT STAYS AVBL.
FOR CD CTC NEW YORK APCH AT 800-645-3206.
CH13 (VHF 165.65) IS MONITORED AT SEAPORT FOR INBD BOAT TFC AND INTERSHIP NAV SAFETY.

Instrument Procedures

There are no published instrument procedures at 6N7.

Some nearby airports with instrument procedures:

6N5 - East 34th Street Heliport (1 nm N)
KJRA - West 30th St Heliport (2 nm NW)
KJRB - Downtown Manhattan/Wall Street Heliport (3 nm SW)
KLGA - LaGuardia Airport (5 nm NE)
KTEB - Teterboro Airport (8 nm NW)
KEWR - Newark Liberty International Airport (9 nm W)
KJFK - John F Kennedy International Airport (10 nm SE)
KLDJ - Linden Airport (14 nm SW)
KCDW - Essex County Airport (16 nm NW)
 
Loc | Ops | Rwys | IFR | FBO | Links
Com | Nav | Svcs | Stats | Notes
Area around 6N7 (New York Skyports Inc Seaplane Base)
 
Road maps at: MapQuest Bing Google
 
Aerial photo
WARNING: Photo may not be current or correct
Aerial photo of 6N7 (New York Skyports Inc Seaplane Base)
Photo by Dave Lu
Photo taken 28-Jun-2013
looking north.

Do you have a better or more recent aerial photo of New York Skyports Inc Seaplane Base that you would like to share? If so, please send us your photo.

 
Sectional chart

 
Airport distance calculator
Flying to New York Skyports Inc Seaplane Base? Find the distance to fly.

From to 6N7

Sunrise and sunset
Times for 06-Jul-2022
 Local
(UTC-4)
 Zulu
(UTC)
Morning civil twilight04:5908:59
Sunrise05:3209:32
Sunset20:2900:29
Evening civil twilight21:0201:02

Current date and time
Zulu (UTC)  06-Jul-2022 07:31:52
Local (UTC-4)  06-Jul-2022 03:31:52
 
METAR
KJRB 
3nm SW 
060703Z AUTO 26005KT 10SM OVC014 23/21 A2981 RMK AO2
KNYC 
3nm N 
060651Z AUTO VRB03KT 9SM OVC014 22/21 A2983 RMK AO2 SLP090 T02220206 $
KLGA 
5nm NE 
060651Z 22007KT 10SM BKN017 BKN200 24/19 A2979 RMK AO2 SLP087 T02390194
KTEB 
9nm NW 
060651Z 26010KT 10SM CLR 23/20 A2979 RMK AO2 SLP086 T02280200 $
KEWR 
9nm W 
060720Z 25008KT 10SM OVC013 26/22 A2980 RMK AO2 T02560217
KJFK 
11nm SE 
060703Z 22005KT 10SM OVC014 22/20 A2981 RMK AO2 T02220200
KLDJ 
14nm SW 
060715Z AUTO 28004KT 10SM OVC011 24/21 A2981 RMK AO2 T02400210
KCDW 
17nm NW 
060653Z AUTO 21004KT 10SM OVC015 23/21 A2980 RMK AO2 SLP095 T02280211
TAF
KLGA 
5nm NE 
060520Z 0606/0712 21012KT P6SM SCT015 BKN020 FM060900 25008KT P6SM FEW020 BKN030 FM061100 30011KT P6SM FEW025 BKN040 FM061300 33012KT P6SM SCT050 BKN250 FM062300 35008KT P6SM SCT050 BKN250 FM070500 05006KT P6SM SCT050 BKN150
KTEB 
9nm NW 
060520Z 0606/0712 21010KT P6SM SCT015 BKN025 FM060900 25009KT P6SM FEW030 BKN040 FM061100 30008KT P6SM FEW030 BKN050 FM061300 33011KT P6SM SCT050 BKN250 FM062300 35007KT P6SM SCT050 BKN250 FM070400 03004KT P6SM SCT050 BKN150
KEWR 
9nm W 
060520Z 0606/0712 21011KT P6SM SCT015 BKN020 FM060900 24008KT P6SM FEW020 BKN025 FM061100 29009KT P6SM FEW030 BKN040 FM061300 32011KT P6SM SCT050 BKN250 FM061600 31014KT P6SM SCT050 BKN250 FM070000 36008KT P6SM SCT050 BKN250 FM071000 05007KT P6SM SCT050 BKN150
KJFK 
11nm SE 
060520Z 0606/0712 20012KT P6SM SCT015 BKN020 FM060900 23009KT P6SM FEW015 BKN025 FM061100 29011KT P6SM FEW025 BKN040 FM061300 32013KT P6SM SCT050 BKN250 FM070000 01006KT P6SM SCT050 BKN250 FM070900 07009KT P6SM SCT050 BKN150
NOTAMs
Click for the latest NOTAMs
NOTAMs are issued by the DoD/FAA and will open in a separate window not controlled by AirNav.

 

 
 

Would you like to see your business listed on this page?

 If your business provides an interesting product or service to pilots, flight crews, aircraft, or users of the New York Skyports Inc Seaplane Base, you should consider listing it here.  To start the listing process, click on the button below
 
Add a business
 

Other Pages about New York Skyports Inc Seaplane Base

Update a link
 
Copyright © AirNav, LLC. All rights reserved. Privacy Policy  Contact